METAR
LICR 302150Z 13003KT 9999 FEW030 17/14 Q1015
TAF